Aviation Digital Data Service (ADDS)

Output produced by METARs form (0653 UTC 23 May 2017)
found at http://aviationweather.gov/adds/metars/
 
KIAG 230537Z 2306/2406 18003KT P6SM SKC 
     FM231200 20008KT P6SM BKN060 
     FM231700 23011KT P6SM BKN090 
     FM232200 VRB03KT P6SM SCT100 
     FM240300 07004KT P6SM BKN050